sensor_id;sensor_type;location;lat;lon;timestamp;temperature;humidity
21019;DHT22;10667;51.056;3.732;2023-04-03T00:00:22;8.10;99.90
21019;DHT22;10667;51.056;3.732;2023-04-03T00:02:48;8.10;99.90
21019;DHT22;10667;51.056;3.732;2023-04-03T00:05:14;8.00;99.90
21019;DHT22;10667;51.056;3.732;2023-04-03T00:07:40;8.10;99.90
21019;DHT22;10667;51.056;3.732;2023-04-03T00:10:06;8.00;99.90
21019;DHT22;10667;51.056;3.732;2023-04-03T00:12:31;8.10;99.90
21019;DHT22;10667;51.056;3.732;2023-04-03T00:14:57;8.00;99.90
21019;DHT22;10667;51.056;3.732;2023-04-03T00:17:23;7.90;99.90
21019;DHT22;10667;51.056;3.732;2023-04-03T00:19:48;7.90;99.90
21019;DHT22;10667;51.056;3.732;2023-04-03T00:22:14;7.90;99.90
21019;DHT22;10667;51.056;3.732;2023-04-03T00:24:40;7.90;99.90
21019;DHT22;10667;51.056;3.732;2023-04-03T00:27:06;7.80;99.90
21019;DHT22;10667;51.056;3.732;2023-04-03T00:29:31;7.80;99.90
21019;DHT22;10667;51.056;3.732;2023-04-03T00:31:57;8.00;99.90
21019;DHT22;10667;51.056;3.732;2023-04-03T00:34:23;8.00;99.90
21019;DHT22;10667;51.056;3.732;2023-04-03T00:36:48;7.90;99.90
21019;DHT22;10667;51.056;3.732;2023-04-03T00:39:14;7.90;99.90
21019;DHT22;10667;51.056;3.732;2023-04-03T00:41:40;7.80;99.90
21019;DHT22;10667;51.056;3.732;2023-04-03T00:44:20;7.70;99.90
21019;DHT22;10667;51.056;3.732;2023-04-03T00:46:45;7.70;99.90
21019;DHT22;10667;51.056;3.732;2023-04-03T00:49:11;7.60;99.90
21019;DHT22;10667;51.056;3.732;2023-04-03T00:51:37;7.70;99.90
21019;DHT22;10667;51.056;3.732;2023-04-03T00:54:05;7.70;99.90
21019;DHT22;10667;51.056;3.732;2023-04-03T00:56:32;7.80;99.90
21019;DHT22;10667;51.056;3.732;2023-04-03T00:59:06;7.80;99.90
21019;DHT22;10667;51.056;3.732;2023-04-03T01:01:34;7.70;99.90
21019;DHT22;10667;51.056;3.732;2023-04-03T01:04:01;7.70;99.90
21019;DHT22;10667;51.056;3.732;2023-04-03T01:06:31;7.60;99.90
21019;DHT22;10667;51.056;3.732;2023-04-03T01:08:59;7.60;99.90
21019;DHT22;10667;51.056;3.732;2023-04-03T01:11:25;7.70;99.90
21019;DHT22;10667;51.056;3.732;2023-04-03T01:13:51;7.70;99.90
21019;DHT22;10667;51.056;3.732;2023-04-03T01:16:18;7.60;99.90
21019;DHT22;10667;51.056;3.732;2023-04-03T01:18:44;7.70;99.90
21019;DHT22;10667;51.056;3.732;2023-04-03T01:24:21;7.60;99.90
21019;DHT22;10667;51.056;3.732;2023-04-03T01:26:48;7.70;99.90
21019;DHT22;10667;51.056;3.732;2023-04-03T01:29:14;7.70;99.90
21019;DHT22;10667;51.056;3.732;2023-04-03T01:31:49;7.60;99.90
21019;DHT22;10667;51.056;3.732;2023-04-03T01:34:15;7.50;99.90
21019;DHT22;10667;51.056;3.732;2023-04-03T01:36:41;7.50;99.90
21019;DHT22;10667;51.056;3.732;2023-04-03T01:39:07;7.50;99.90
21019;DHT22;10667;51.056;3.732;2023-04-03T01:41:33;7.50;99.90
21019;DHT22;10667;51.056;3.732;2023-04-03T01:43:58;7.40;99.90
21019;DHT22;10667;51.056;3.732;2023-04-03T01:46:24;7.30;99.90
21019;DHT22;10667;51.056;3.732;2023-04-03T01:48:50;7.10;99.90
21019;DHT22;10667;51.056;3.732;2023-04-03T01:51:16;7.10;99.90
21019;DHT22;10667;51.056;3.732;2023-04-03T01:53:42;7.10;99.90
21019;DHT22;10667;51.056;3.732;2023-04-03T01:56:08;7.20;99.90
21019;DHT22;10667;51.056;3.732;2023-04-03T01:58:34;7.10;99.90
21019;DHT22;10667;51.056;3.732;2023-04-03T02:00:59;7.20;99.90
21019;DHT22;10667;51.056;3.732;2023-04-03T02:03:25;7.30;99.90
21019;DHT22;10667;51.056;3.732;2023-04-03T02:05:51;7.30;99.90
21019;DHT22;10667;51.056;3.732;2023-04-03T02:08:17;7.30;99.90
21019;DHT22;10667;51.056;3.732;2023-04-03T02:10:44;7.10;99.90
21019;DHT22;10667;51.056;3.732;2023-04-03T02:13:10;7.00;99.90
21019;DHT22;10667;51.056;3.732;2023-04-03T02:15:38;7.00;99.90
21019;DHT22;10667;51.056;3.732;2023-04-03T02:18:05;7.00;99.90
21019;DHT22;10667;51.056;3.732;2023-04-03T02:20:31;7.10;99.90
21019;DHT22;10667;51.056;3.732;2023-04-03T02:22:56;7.20;99.90
21019;DHT22;10667;51.056;3.732;2023-04-03T02:25:22;7.30;99.90
21019;DHT22;10667;51.056;3.732;2023-04-03T02:27:48;7.30;99.90
21019;DHT22;10667;51.056;3.732;2023-04-03T02:30:13;7.30;99.90
21019;DHT22;10667;51.056;3.732;2023-04-03T02:32:41;7.20;99.90
21019;DHT22;10667;51.056;3.732;2023-04-03T02:35:08;7.20;99.90
21019;DHT22;10667;51.056;3.732;2023-04-03T02:37:34;7.20;99.90
21019;DHT22;10667;51.056;3.732;2023-04-03T02:40:00;7.20;99.90
21019;DHT22;10667;51.056;3.732;2023-04-03T02:42:25;7.10;99.90
21019;DHT22;10667;51.056;3.732;2023-04-03T02:44:51;7.10;99.90
21019;DHT22;10667;51.056;3.732;2023-04-03T02:47:17;7.10;99.90
21019;DHT22;10667;51.056;3.732;2023-04-03T02:49:43;7.20;99.90
21019;DHT22;10667;51.056;3.732;2023-04-03T02:52:13;7.20;99.90
21019;DHT22;10667;51.056;3.732;2023-04-03T02:54:38;7.10;99.90
21019;DHT22;10667;51.056;3.732;2023-04-03T02:57:04;7.10;99.90
21019;DHT22;10667;51.056;3.732;2023-04-03T02:59:30;7.10;99.90
21019;DHT22;10667;51.056;3.732;2023-04-03T03:01:56;7.20;99.90
21019;DHT22;10667;51.056;3.732;2023-04-03T03:04:22;7.20;99.90
21019;DHT22;10667;51.056;3.732;2023-04-03T03:06:48;7.20;99.90
21019;DHT22;10667;51.056;3.732;2023-04-03T03:09:14;7.10;99.90
21019;DHT22;10667;51.056;3.732;2023-04-03T03:11:40;7.10;99.90
21019;DHT22;10667;51.056;3.732;2023-04-03T03:14:05;7.10;99.90
21019;DHT22;10667;51.056;3.732;2023-04-03T03:16:31;7.10;99.90
21019;DHT22;10667;51.056;3.732;2023-04-03T03:18:57;7.10;99.90
21019;DHT22;10667;51.056;3.732;2023-04-03T03:21:23;7.10;99.90
21019;DHT22;10667;51.056;3.732;2023-04-03T03:23:48;7.10;99.90
21019;DHT22;10667;51.056;3.732;2023-04-03T03:26:14;7.00;99.90
21019;DHT22;10667;51.056;3.732;2023-04-03T03:28:40;7.00;99.90
21019;DHT22;10667;51.056;3.732;2023-04-03T03:31:07;6.90;99.90
21019;DHT22;10667;51.056;3.732;2023-04-03T03:33:33;6.90;99.90
21019;DHT22;10667;51.056;3.732;2023-04-03T03:36:00;6.90;99.90
21019;DHT22;10667;51.056;3.732;2023-04-03T03:38:25;6.90;99.90
21019;DHT22;10667;51.056;3.732;2023-04-03T03:40:51;6.90;99.90
21019;DHT22;10667;51.056;3.732;2023-04-03T03:43:18;6.90;99.90
21019;DHT22;10667;51.056;3.732;2023-04-03T03:45:44;6.80;99.90
21019;DHT22;10667;51.056;3.732;2023-04-03T03:48:11;6.90;99.90
21019;DHT22;10667;51.056;3.732;2023-04-03T03:50:37;6.80;99.90
21019;DHT22;10667;51.056;3.732;2023-04-03T03:53:03;6.80;99.90
21019;DHT22;10667;51.056;3.732;2023-04-03T03:55:28;6.90;99.90
21019;DHT22;10667;51.056;3.732;2023-04-03T03:57:54;6.80;99.90
21019;DHT22;10667;51.056;3.732;2023-04-03T04:00:20;6.80;99.90
21019;DHT22;10667;51.056;3.732;2023-04-03T04:02:46;6.80;99.90
21019;DHT22;10667;51.056;3.732;2023-04-03T04:05:12;6.70;99.90
21019;DHT22;10667;51.056;3.732;2023-04-03T04:07:38;6.70;99.90
21019;DHT22;10667;51.056;3.732;2023-04-03T04:10:04;6.60;99.90
21019;DHT22;10667;51.056;3.732;2023-04-03T04:12:30;6.70;99.90
21019;DHT22;10667;51.056;3.732;2023-04-03T04:14:55;6.80;99.90
21019;DHT22;10667;51.056;3.732;2023-04-03T04:17:21;6.90;99.90
21019;DHT22;10667;51.056;3.732;2023-04-03T04:19:47;6.80;99.90
21019;DHT22;10667;51.056;3.732;2023-04-03T04:22:12;6.80;99.90
21019;DHT22;10667;51.056;3.732;2023-04-03T04:24:38;6.70;99.90
21019;DHT22;10667;51.056;3.732;2023-04-03T04:27:04;6.70;99.90
21019;DHT22;10667;51.056;3.732;2023-04-03T04:29:29;6.70;99.90
21019;DHT22;10667;51.056;3.732;2023-04-03T04:32:00;6.70;99.90
21019;DHT22;10667;51.056;3.732;2023-04-03T04:34:26;6.60;99.90
21019;DHT22;10667;51.056;3.732;2023-04-03T04:36:52;6.50;99.90
21019;DHT22;10667;51.056;3.732;2023-04-03T04:39:17;6.60;99.90
21019;DHT22;10667;51.056;3.732;2023-04-03T04:41:43;6.50;99.90
21019;DHT22;10667;51.056;3.732;2023-04-03T04:44:09;6.40;99.90
21019;DHT22;10667;51.056;3.732;2023-04-03T04:46:35;6.40;99.90
21019;DHT22;10667;51.056;3.732;2023-04-03T04:49:00;6.40;99.90
21019;DHT22;10667;51.056;3.732;2023-04-03T04:51:26;6.40;99.90
21019;DHT22;10667;51.056;3.732;2023-04-03T04:53:52;6.30;99.90
21019;DHT22;10667;51.056;3.732;2023-04-03T04:56:17;6.30;99.90
21019;DHT22;10667;51.056;3.732;2023-04-03T04:58:43;6.40;99.90
21019;DHT22;10667;51.056;3.732;2023-04-03T05:01:10;6.40;99.90
21019;DHT22;10667;51.056;3.732;2023-04-03T05:03:36;6.50;99.90
21019;DHT22;10667;51.056;3.732;2023-04-03T05:06:02;6.50;99.90
21019;DHT22;10667;51.056;3.732;2023-04-03T05:08:27;6.50;99.90
21019;DHT22;10667;51.056;3.732;2023-04-03T05:10:53;6.50;99.90
21019;DHT22;10667;51.056;3.732;2023-04-03T05:13:19;6.20;99.90
21019;DHT22;10667;51.056;3.732;2023-04-03T05:15:46;6.20;99.90
21019;DHT22;10667;51.056;3.732;2023-04-03T05:18:12;6.30;99.90
21019;DHT22;10667;51.056;3.732;2023-04-03T05:20:38;6.20;99.90
21019;DHT22;10667;51.056;3.732;2023-04-03T05:23:04;6.10;99.90
21019;DHT22;10667;51.056;3.732;2023-04-03T05:25:30;6.10;99.90
21019;DHT22;10667;51.056;3.732;2023-04-03T05:27:55;6.00;99.90
21019;DHT22;10667;51.056;3.732;2023-04-03T05:30:21;6.00;99.90
21019;DHT22;10667;51.056;3.732;2023-04-03T05:32:47;5.90;99.90
21019;DHT22;10667;51.056;3.732;2023-04-03T05:35:13;5.90;99.90
21019;DHT22;10667;51.056;3.732;2023-04-03T05:37:39;5.90;99.90
21019;DHT22;10667;51.056;3.732;2023-04-03T05:40:06;6.00;99.90
21019;DHT22;10667;51.056;3.732;2023-04-03T05:42:32;6.10;99.90
21019;DHT22;10667;51.056;3.732;2023-04-03T05:44:58;6.10;99.90
21019;DHT22;10667;51.056;3.732;2023-04-03T05:47:24;6.20;99.90
21019;DHT22;10667;51.056;3.732;2023-04-03T05:49:50;6.20;99.90
21019;DHT22;10667;51.056;3.732;2023-04-03T05:52:36;6.20;99.90
21019;DHT22;10667;51.056;3.732;2023-04-03T05:55:04;6.20;99.90
21019;DHT22;10667;51.056;3.732;2023-04-03T05:57:30;6.20;99.90
21019;DHT22;10667;51.056;3.732;2023-04-03T05:59:55;6.10;99.90
21019;DHT22;10667;51.056;3.732;2023-04-03T06:02:23;6.20;99.90
21019;DHT22;10667;51.056;3.732;2023-04-03T06:04:49;6.40;99.90
21019;DHT22;10667;51.056;3.732;2023-04-03T06:07:20;6.50;99.90
21019;DHT22;10667;51.056;3.732;2023-04-03T06:09:48;6.50;99.90
21019;DHT22;10667;51.056;3.732;2023-04-03T06:12:14;6.50;99.90
21019;DHT22;10667;51.056;3.732;2023-04-03T06:14:40;6.60;99.90
21019;DHT22;10667;51.056;3.732;2023-04-03T06:17:07;6.60;99.90
21019;DHT22;10667;51.056;3.732;2023-04-03T06:19:34;6.50;99.90
21019;DHT22;10667;51.056;3.732;2023-04-03T06:22:00;6.30;99.90
21019;DHT22;10667;51.056;3.732;2023-04-03T06:24:26;6.30;99.90
21019;DHT22;10667;51.056;3.732;2023-04-03T06:26:52;6.10;99.90
21019;DHT22;10667;51.056;3.732;2023-04-03T06:29:19;6.10;99.90
21019;DHT22;10667;51.056;3.732;2023-04-03T06:31:45;6.00;99.90
21019;DHT22;10667;51.056;3.732;2023-04-03T06:34:11;6.00;99.90
21019;DHT22;10667;51.056;3.732;2023-04-03T06:36:38;6.00;99.90
21019;DHT22;10667;51.056;3.732;2023-04-03T06:39:04;6.10;99.90
21019;DHT22;10667;51.056;3.732;2023-04-03T06:41:30;6.30;99.90
21019;DHT22;10667;51.056;3.732;2023-04-03T06:43:56;6.40;99.90
21019;DHT22;10667;51.056;3.732;2023-04-03T06:46:25;6.30;99.90
21019;DHT22;10667;51.056;3.732;2023-04-03T06:48:51;6.20;99.90
21019;DHT22;10667;51.056;3.732;2023-04-03T06:53:44;6.30;99.90
21019;DHT22;10667;51.056;3.732;2023-04-03T06:56:11;6.50;99.90
21019;DHT22;10667;51.056;3.732;2023-04-03T06:58:37;6.60;99.90
21019;DHT22;10667;51.056;3.732;2023-04-03T07:01:03;6.60;99.90
21019;DHT22;10667;51.056;3.732;2023-04-03T07:03:29;6.60;99.90
21019;DHT22;10667;51.056;3.732;2023-04-03T07:05:54;6.60;99.90
21019;DHT22;10667;51.056;3.732;2023-04-03T07:08:20;6.80;99.90
21019;DHT22;10667;51.056;3.732;2023-04-03T07:10:48;7.00;99.90
21019;DHT22;10667;51.056;3.732;2023-04-03T07:13:14;7.00;99.90
21019;DHT22;10667;51.056;3.732;2023-04-03T07:15:40;7.20;99.90
21019;DHT22;10667;51.056;3.732;2023-04-03T07:18:05;7.20;99.90
21019;DHT22;10667;51.056;3.732;2023-04-03T07:20:31;7.30;99.90
21019;DHT22;10667;51.056;3.732;2023-04-03T07:22:57;7.40;99.90
21019;DHT22;10667;51.056;3.732;2023-04-03T07:25:23;7.50;99.90
21019;DHT22;10667;51.056;3.732;2023-04-03T07:27:48;7.50;99.90
21019;DHT22;10667;51.056;3.732;2023-04-03T07:30:15;7.40;99.90
21019;DHT22;10667;51.056;3.732;2023-04-03T07:32:40;7.70;99.90
21019;DHT22;10667;51.056;3.732;2023-04-03T07:35:06;7.70;99.90
21019;DHT22;10667;51.056;3.732;2023-04-03T07:37:32;7.70;99.90
21019;DHT22;10667;51.056;3.732;2023-04-03T07:39:58;7.70;99.90
21019;DHT22;10667;51.056;3.732;2023-04-03T07:42:25;7.80;99.90
21019;DHT22;10667;51.056;3.732;2023-04-03T07:44:53;7.90;99.90
21019;DHT22;10667;51.056;3.732;2023-04-03T07:47:19;8.00;99.90
21019;DHT22;10667;51.056;3.732;2023-04-03T07:49:45;7.80;99.90
21019;DHT22;10667;51.056;3.732;2023-04-03T07:52:11;7.70;99.90
21019;DHT22;10667;51.056;3.732;2023-04-03T07:54:37;7.90;99.90
21019;DHT22;10667;51.056;3.732;2023-04-03T07:57:03;8.00;99.90
21019;DHT22;10667;51.056;3.732;2023-04-03T07:59:29;8.10;99.90
21019;DHT22;10667;51.056;3.732;2023-04-03T08:01:55;8.20;99.90
21019;DHT22;10667;51.056;3.732;2023-04-03T08:04:21;8.20;99.90
21019;DHT22;10667;51.056;3.732;2023-04-03T08:06:47;8.00;99.90
21019;DHT22;10667;51.056;3.732;2023-04-03T08:09:14;7.90;99.90
21019;DHT22;10667;51.056;3.732;2023-04-03T08:11:40;8.20;99.90
21019;DHT22;10667;51.056;3.732;2023-04-03T08:14:06;8.40;99.90
21019;DHT22;10667;51.056;3.732;2023-04-03T08:16:32;8.50;99.90
21019;DHT22;10667;51.056;3.732;2023-04-03T08:18:58;8.60;99.90
21019;DHT22;10667;51.056;3.732;2023-04-03T08:21:24;8.70;99.90
21019;DHT22;10667;51.056;3.732;2023-04-03T08:23:51;8.70;99.90
21019;DHT22;10667;51.056;3.732;2023-04-03T08:26:19;8.40;99.90
21019;DHT22;10667;51.056;3.732;2023-04-03T08:28:47;8.40;99.90
21019;DHT22;10667;51.056;3.732;2023-04-03T08:31:18;8.30;99.90
21019;DHT22;10667;51.056;3.732;2023-04-03T08:33:45;8.50;99.90
21019;DHT22;10667;51.056;3.732;2023-04-03T08:36:20;8.50;99.90
21019;DHT22;10667;51.056;3.732;2023-04-03T08:38:46;8.40;99.90
21019;DHT22;10667;51.056;3.732;2023-04-03T08:41:34;8.60;99.90
21019;DHT22;10667;51.056;3.732;2023-04-03T08:44:10;8.70;99.90
21019;DHT22;10667;51.056;3.732;2023-04-03T08:49:39;8.50;99.90
21019;DHT22;10667;51.056;3.732;2023-04-03T08:52:11;8.80;99.90
21019;DHT22;10667;51.056;3.732;2023-04-03T08:57:12;9.00;99.90
21019;DHT22;10667;51.056;3.732;2023-04-03T08:59:39;9.00;99.90
21019;DHT22;10667;51.056;3.732;2023-04-03T09:02:29;8.90;99.90
21019;DHT22;10667;51.056;3.732;2023-04-03T09:04:58;8.90;99.90
21019;DHT22;10667;51.056;3.732;2023-04-03T09:07:36;8.90;99.90
21019;DHT22;10667;51.056;3.732;2023-04-03T09:10:03;9.00;99.90
21019;DHT22;10667;51.056;3.732;2023-04-03T09:12:41;9.00;99.90
21019;DHT22;10667;51.056;3.732;2023-04-03T09:15:20;9.10;99.90
21019;DHT22;10667;51.056;3.732;2023-04-03T09:18:06;9.00;99.90
21019;DHT22;10667;51.056;3.732;2023-04-03T09:26:14;8.80;99.90
21019;DHT22;10667;51.056;3.732;2023-04-03T09:28:42;8.80;99.90
21019;DHT22;10667;51.056;3.732;2023-04-03T09:31:20;9.10;99.90
21019;DHT22;10667;51.056;3.732;2023-04-03T09:33:50;9.30;99.90
21019;DHT22;10667;51.056;3.732;2023-04-03T09:36:46;9.50;99.90
21019;DHT22;10667;51.056;3.732;2023-04-03T09:39:22;9.70;99.90
21019;DHT22;10667;51.056;3.732;2023-04-03T09:42:13;9.60;99.90
21019;DHT22;10667;51.056;3.732;2023-04-03T09:44:41;9.70;99.90
21019;DHT22;10667;51.056;3.732;2023-04-03T09:47:22;9.70;99.90
21019;DHT22;10667;51.056;3.732;2023-04-03T09:49:49;9.60;99.90
21019;DHT22;10667;51.056;3.732;2023-04-03T09:52:22;9.50;99.90
21019;DHT22;10667;51.056;3.732;2023-04-03T09:54:48;9.40;99.90
21019;DHT22;10667;51.056;3.732;2023-04-03T09:57:14;9.40;99.90
21019;DHT22;10667;51.056;3.732;2023-04-03T10:00:10;9.30;99.90
21019;DHT22;10667;51.056;3.732;2023-04-03T10:02:44;9.20;99.90
21019;DHT22;10667;51.056;3.732;2023-04-03T10:05:36;9.30;99.90
21019;DHT22;10667;51.056;3.732;2023-04-03T10:08:15;9.30;99.90
21019;DHT22;10667;51.056;3.732;2023-04-03T10:10:46;9.40;99.90
21019;DHT22;10667;51.056;3.732;2023-04-03T10:15:45;9.40;99.90
21019;DHT22;10667;51.056;3.732;2023-04-03T10:21:20;9.70;99.90
21019;DHT22;10667;51.056;3.732;2023-04-03T10:23:53;9.90;99.90
21019;DHT22;10667;51.056;3.732;2023-04-03T10:26:41;10.10;99.90
21019;DHT22;10667;51.056;3.732;2023-04-03T10:34:46;10.40;99.90
21019;DHT22;10667;51.056;3.732;2023-04-03T10:37:25;10.50;99.90
21019;DHT22;10667;51.056;3.732;2023-04-03T10:40:01;10.50;99.90
21019;DHT22;10667;51.056;3.732;2023-04-03T10:45:28;10.50;99.90
21019;DHT22;10667;51.056;3.732;2023-04-03T10:50:44;10.50;99.90
21019;DHT22;10667;51.056;3.732;2023-04-03T10:53:27;10.60;99.90
21019;DHT22;10667;51.056;3.732;2023-04-03T10:58:39;10.70;99.90
21019;DHT22;10667;51.056;3.732;2023-04-03T11:01:16;10.60;99.90
21019;DHT22;10667;51.056;3.732;2023-04-03T11:03:49;10.30;99.90
21019;DHT22;10667;51.056;3.732;2023-04-03T11:06:19;10.30;99.90
21019;DHT22;10667;51.056;3.732;2023-04-03T11:08:52;10.30;99.90
21019;DHT22;10667;51.056;3.732;2023-04-03T11:11:25;10.20;99.90
21019;DHT22;10667;51.056;3.732;2023-04-03T11:13:58;10.50;99.90
21019;DHT22;10667;51.056;3.732;2023-04-03T11:16:32;10.60;99.90
21019;DHT22;10667;51.056;3.732;2023-04-03T11:19:14;10.90;99.90
21019;DHT22;10667;51.056;3.732;2023-04-03T11:21:55;11.00;99.90
21019;DHT22;10667;51.056;3.732;2023-04-03T11:24:25;10.80;99.90
21019;DHT22;10667;51.056;3.732;2023-04-03T11:26:54;10.90;99.90
21019;DHT22;10667;51.056;3.732;2023-04-03T11:29:23;10.90;98.40
21019;DHT22;10667;51.056;3.732;2023-04-03T11:32:10;10.90;98.50
21019;DHT22;10667;51.056;3.732;2023-04-03T11:34:42;11.00;98.70
21019;DHT22;10667;51.056;3.732;2023-04-03T11:37:30;10.80;99.70
21019;DHT22;10667;51.056;3.732;2023-04-03T11:40:00;10.90;99.30
21019;DHT22;10667;51.056;3.732;2023-04-03T11:48:09;11.50;91.00
21019;DHT22;10667;51.056;3.732;2023-04-03T11:50:51;11.30;92.00
21019;DHT22;10667;51.056;3.732;2023-04-03T11:53:33;11.30;84.30
21019;DHT22;10667;51.056;3.732;2023-04-03T11:56:02;11.40;81.50
21019;DHT22;10667;51.056;3.732;2023-04-03T11:58:33;11.40;79.90
21019;DHT22;10667;51.056;3.732;2023-04-03T12:01:10;11.60;74.70
21019;DHT22;10667;51.056;3.732;2023-04-03T12:13:39;11.70;78.70
21019;DHT22;10667;51.056;3.732;2023-04-03T12:16:06;11.60;79.20
21019;DHT22;10667;51.056;3.732;2023-04-03T12:21:09;11.80;81.20
21019;DHT22;10667;51.056;3.732;2023-04-03T12:23:36;11.80;83.10
21019;DHT22;10667;51.056;3.732;2023-04-03T12:26:22;12.00;83.10
21019;DHT22;10667;51.056;3.732;2023-04-03T12:28:51;12.30;81.30
21019;DHT22;10667;51.056;3.732;2023-04-03T12:31:19;12.20;83.70
21019;DHT22;10667;51.056;3.732;2023-04-03T12:34:04;12.40;83.70
21019;DHT22;10667;51.056;3.732;2023-04-03T12:37:07;12.60;84.30
21019;DHT22;10667;51.056;3.732;2023-04-03T12:45:22;11.90;85.50
21019;DHT22;10667;51.056;3.732;2023-04-03T12:47:50;11.90;86.20
21019;DHT22;10667;51.056;3.732;2023-04-03T12:50:31;12.20;84.70
21019;DHT22;10667;51.056;3.732;2023-04-03T12:53:13;12.30;83.60
21019;DHT22;10667;51.056;3.732;2023-04-03T12:55:40;12.30;84.10
21019;DHT22;10667;51.056;3.732;2023-04-03T12:58:24;12.30;81.50
21019;DHT22;10667;51.056;3.732;2023-04-03T13:01:04;12.20;79.80
21019;DHT22;10667;51.056;3.732;2023-04-03T13:03:37;12.00;81.90
21019;DHT22;10667;51.056;3.732;2023-04-03T13:06:05;11.90;83.90
21019;DHT22;10667;51.056;3.732;2023-04-03T13:08:32;11.90;83.60
21019;DHT22;10667;51.056;3.732;2023-04-03T13:11:04;11.90;84.70
21019;DHT22;10667;51.056;3.732;2023-04-03T13:13:31;11.90;84.10
21019;DHT22;10667;51.056;3.732;2023-04-03T13:15:57;12.00;79.10
21019;DHT22;10667;51.056;3.732;2023-04-03T13:18:34;12.20;77.90
21019;DHT22;10667;51.056;3.732;2023-04-03T13:21:10;12.40;77.40
21019;DHT22;10667;51.056;3.732;2023-04-03T13:35:45;12.40;73.90
21019;DHT22;10667;51.056;3.732;2023-04-03T13:40:48;12.60;71.00
21019;DHT22;10667;51.056;3.732;2023-04-03T13:43:20;12.50;71.40
21019;DHT22;10667;51.056;3.732;2023-04-03T13:45:57;12.70;67.10
21019;DHT22;10667;51.056;3.732;2023-04-03T13:48:23;12.60;67.40
21019;DHT22;10667;51.056;3.732;2023-04-03T13:53:24;12.70;62.60
21019;DHT22;10667;51.056;3.732;2023-04-03T13:58:26;12.70;62.30
21019;DHT22;10667;51.056;3.732;2023-04-03T14:01:17;12.80;59.70
21019;DHT22;10667;51.056;3.732;2023-04-03T14:06:21;12.80;58.70
21019;DHT22;10667;51.056;3.732;2023-04-03T14:08:47;12.70;60.00
21019;DHT22;10667;51.056;3.732;2023-04-03T14:11:28;12.40;61.70
21019;DHT22;10667;51.056;3.732;2023-04-03T14:14:09;12.40;59.80
21019;DHT22;10667;51.056;3.732;2023-04-03T14:16:40;12.50;59.00
21019;DHT22;10667;51.056;3.732;2023-04-03T14:19:09;12.60;59.50
21019;DHT22;10667;51.056;3.732;2023-04-03T14:21:40;12.50;60.10
21019;DHT22;10667;51.056;3.732;2023-04-03T14:24:06;12.50;59.70
21019;DHT22;10667;51.056;3.732;2023-04-03T14:26:32;12.50;60.00
21019;DHT22;10667;51.056;3.732;2023-04-03T14:28:58;12.60;60.10
21019;DHT22;10667;51.056;3.732;2023-04-03T14:31:24;12.40;61.20
21019;DHT22;10667;51.056;3.732;2023-04-03T14:33:50;12.40;61.60
21019;DHT22;10667;51.056;3.732;2023-04-03T14:36:21;12.50;59.70
21019;DHT22;10667;51.056;3.732;2023-04-03T14:38:48;12.40;60.60
21019;DHT22;10667;51.056;3.732;2023-04-03T14:41:17;12.40;60.10
21019;DHT22;10667;51.056;3.732;2023-04-03T14:43:44;12.60;57.60
21019;DHT22;10667;51.056;3.732;2023-04-03T14:46:32;12.50;56.90
21019;DHT22;10667;51.056;3.732;2023-04-03T14:48:58;12.40;56.60
21019;DHT22;10667;51.056;3.732;2023-04-03T14:51:24;12.40;57.90
21019;DHT22;10667;51.056;3.732;2023-04-03T14:53:51;12.30;58.00
21019;DHT22;10667;51.056;3.732;2023-04-03T14:56:23;12.40;58.80
21019;DHT22;10667;51.056;3.732;2023-04-03T14:58:55;12.50;58.40
21019;DHT22;10667;51.056;3.732;2023-04-03T15:01:21;12.70;57.20
21019;DHT22;10667;51.056;3.732;2023-04-03T15:03:47;12.70;58.10
21019;DHT22;10667;51.056;3.732;2023-04-03T15:06:14;12.70;57.70
21019;DHT22;10667;51.056;3.732;2023-04-03T15:08:41;12.70;57.60
21019;DHT22;10667;51.056;3.732;2023-04-03T15:11:08;12.40;59.40
21019;DHT22;10667;51.056;3.732;2023-04-03T15:13:35;12.50;60.00
21019;DHT22;10667;51.056;3.732;2023-04-03T15:16:01;12.80;57.90
21019;DHT22;10667;51.056;3.732;2023-04-03T15:18:28;12.80;57.10
21019;DHT22;10667;51.056;3.732;2023-04-03T15:20:56;12.70;58.20
21019;DHT22;10667;51.056;3.732;2023-04-03T15:23:22;12.70;57.40
21019;DHT22;10667;51.056;3.732;2023-04-03T15:25:53;12.50;58.20
21019;DHT22;10667;51.056;3.732;2023-04-03T15:30:48;12.20;59.70
21019;DHT22;10667;51.056;3.732;2023-04-03T15:33:14;12.30;59.40
21019;DHT22;10667;51.056;3.732;2023-04-03T15:35:41;12.50;58.20
21019;DHT22;10667;51.056;3.732;2023-04-03T15:38:07;12.60;58.20
21019;DHT22;10667;51.056;3.732;2023-04-03T15:40:33;12.60;58.10
21019;DHT22;10667;51.056;3.732;2023-04-03T15:42:58;12.70;57.40
21019;DHT22;10667;51.056;3.732;2023-04-03T15:45:24;12.70;57.50
21019;DHT22;10667;51.056;3.732;2023-04-03T15:47:50;12.60;58.00
21019;DHT22;10667;51.056;3.732;2023-04-03T15:50:16;12.20;60.00
21019;DHT22;10667;51.056;3.732;2023-04-03T15:52:42;12.20;60.20
21019;DHT22;10667;51.056;3.732;2023-04-03T15:55:08;12.50;59.20
21019;DHT22;10667;51.056;3.732;2023-04-03T15:57:34;12.70;57.80
21019;DHT22;10667;51.056;3.732;2023-04-03T16:00:00;12.70;56.90
21019;DHT22;10667;51.056;3.732;2023-04-03T16:02:25;12.60;58.10
21019;DHT22;10667;51.056;3.732;2023-04-03T16:04:54;12.40;58.70
21019;DHT22;10667;51.056;3.732;2023-04-03T16:07:20;12.30;59.90
21019;DHT22;10667;51.056;3.732;2023-04-03T16:09:46;12.60;58.30
21019;DHT22;10667;51.056;3.732;2023-04-03T16:12:12;12.90;58.10
21019;DHT22;10667;51.056;3.732;2023-04-03T16:14:37;12.90;57.40
21019;DHT22;10667;51.056;3.732;2023-04-03T16:17:03;12.80;56.80
21019;DHT22;10667;51.056;3.732;2023-04-03T16:19:29;12.90;55.00
21019;DHT22;10667;51.056;3.732;2023-04-03T16:21:55;12.90;56.10
21019;DHT22;10667;51.056;3.732;2023-04-03T16:24:21;12.80;54.70
21019;DHT22;10667;51.056;3.732;2023-04-03T16:26:47;12.60;54.40
21019;DHT22;10667;51.056;3.732;2023-04-03T16:29:13;12.50;54.60
21019;DHT22;10667;51.056;3.732;2023-04-03T16:31:39;12.40;55.00
21019;DHT22;10667;51.056;3.732;2023-04-03T16:34:05;12.30;55.30
21019;DHT22;10667;51.056;3.732;2023-04-03T16:36:31;12.30;55.40
21019;DHT22;10667;51.056;3.732;2023-04-03T16:38:56;12.20;55.80
21019;DHT22;10667;51.056;3.732;2023-04-03T16:41:22;12.10;56.50
21019;DHT22;10667;51.056;3.732;2023-04-03T16:43:48;12.10;56.60
21019;DHT22;10667;51.056;3.732;2023-04-03T16:46:15;12.20;56.90
21019;DHT22;10667;51.056;3.732;2023-04-03T16:48:41;12.30;57.20
21019;DHT22;10667;51.056;3.732;2023-04-03T16:51:06;12.40;56.00
21019;DHT22;10667;51.056;3.732;2023-04-03T16:53:32;12.40;56.70
21019;DHT22;10667;51.056;3.732;2023-04-03T16:55:58;12.30;56.80
21019;DHT22;10667;51.056;3.732;2023-04-03T16:58:24;12.30;57.40
21019;DHT22;10667;51.056;3.732;2023-04-03T17:00:50;12.20;57.60
21019;DHT22;10667;51.056;3.732;2023-04-03T17:03:16;12.20;55.80
21019;DHT22;10667;51.056;3.732;2023-04-03T17:05:41;11.80;58.00
21019;DHT22;10667;51.056;3.732;2023-04-03T17:08:09;11.80;58.00
21019;DHT22;10667;51.056;3.732;2023-04-03T17:10:34;11.80;58.60
21019;DHT22;10667;51.056;3.732;2023-04-03T17:13:00;12.10;57.80